Time;durP1;ratioP1;P1;durP2;ratioP2;P2;SDS_P1;SDS_P2;PMS_P1;PMS_P2;Temp;Humidity;BMP_temperature;BMP_pressure;BME280_temperature;BME280_humidity;BME280_pressure;Samples;Min_cycle;Max_cycle;Signal;HPM_P1;HPM_P2
2022/09/23 00:01:08;;;;;;;1.50;0.50;;;6.60;99.90;;;;;;5071840;28;20905;-76
2022/09/23 00:03:37;;;;;;;0.63;0.63;;;6.60;99.90;;;;;;5071407;28;20431;-76
2022/09/23 00:06:07;;;;;;;0.50;0.50;;;6.60;99.90;;;;;;5072224;28;20471;-76
2022/09/23 00:08:34;;;;;;;0.40;0.40;;;6.60;99.90;;;;;;5072235;28;20499;-76
2022/09/23 00:11:09;;;;;;;0.63;0.63;;;6.70;99.90;;;;;;5064588;28;20439;-76
2022/09/23 00:13:37;;;;;;;0.73;0.50;;;6.70;99.90;;;;;;5071180;28;21135;-76
2022/09/23 00:16:07;;;;;;;0.30;0.30;;;6.70;99.90;;;;;;5071585;28;20434;-75
2022/09/23 00:18:34;;;;;;;0.70;0.70;;;6.70;99.90;;;;;;5071754;28;20431;-76
2022/09/23 00:21:04;;;;;;;0.70;0.70;;;6.70;99.90;;;;;;5071331;28;20428;-76
2022/09/23 00:23:31;;;;;;;0.50;0.50;;;6.70;99.90;;;;;;5069803;28;21212;-76
2022/09/23 00:26:00;;;;;;;0.60;0.50;;;6.70;99.90;;;;;;5071728;28;20459;-76
2022/09/23 00:28:27;;;;;;;0.93;0.80;;;6.70;99.90;;;;;;5071755;28;20431;-76
2022/09/23 00:30:54;;;;;;;0.43;0.43;;;6.70;99.90;;;;;;5072093;28;20439;-76
2022/09/23 00:33:21;;;;;;;0.57;0.57;;;6.70;99.90;;;;;;5071257;28;20428;-75
2022/09/23 00:35:48;;;;;;;0.50;0.50;;;6.60;99.90;;;;;;5071686;28;20778;-76
2022/09/23 00:38:16;;;;;;;0.65;0.65;;;6.70;99.90;;;;;;5071168;28;20511;-76
2022/09/23 00:40:44;;;;;;;0.70;0.70;;;6.70;99.90;;;;;;5071810;28;20454;-76
2022/09/23 00:43:13;;;;;;;0.50;0.50;;;6.60;99.90;;;;;;5071941;28;20430;-75
2022/09/23 00:45:45;;;;;;;0.50;0.50;;;6.60;99.90;;;;;;5071431;28;20917;-76
2022/09/23 00:48:16;;;;;;;0.70;0.70;;;6.50;99.90;;;;;;5073556;28;20461;-76
2022/09/23 00:50:48;;;;;;;0.70;0.70;;;6.50;99.90;;;;;;5072780;28;20505;-76
2022/09/23 00:53:18;;;;;;;0.55;0.55;;;6.50;99.90;;;;;;5071217;28;20431;-76
2022/09/23 00:55:48;;;;;;;1.02;0.82;;;6.50;99.90;;;;;;5070248;28;20430;-76
2022/09/23 00:58:21;;;;;;;0.70;0.70;;;6.50;99.90;;;;;;5071617;28;20427;-76
2022/09/23 01:00:48;;;;;;;0.75;0.70;;;6.50;99.90;;;;;;5071220;28;20428;-76
2022/09/23 01:03:15;;;;;;;0.98;0.98;;;6.50;99.90;;;;;;5070696;28;20442;-76
2022/09/23 01:05:45;;;;;;;0.40;0.40;;;6.40;99.90;;;;;;5071658;28;20431;-76
2022/09/23 01:08:14;;;;;;;0.70;0.70;;;6.40;99.90;;;;;;5071337;28;20880;-76
2022/09/23 01:11:34;;;;;;;0.57;0.57;;;6.30;99.90;;;;;;5070823;28;20431;-76
2022/09/23 01:14:44;;;;;;;1.10;0.80;;;6.30;99.90;;;;;;5068321;28;20438;-76
2022/09/23 01:17:47;;;;;;;0.80;0.80;;;6.30;99.90;;;;;;5071276;28;20798;-76
2022/09/23 01:20:41;;;;;;;0.85;0.85;;;6.30;99.90;;;;;;5071250;28;20423;-76
2022/09/23 01:23:29;;;;;;;1.08;0.63;;;6.20;99.90;;;;;;5074761;28;21292;-76
2022/09/23 01:26:20;;;;;;;0.80;0.80;;;6.20;99.90;;;;;;5074771;28;20423;-76
2022/09/23 01:29:13;;;;;;;1.00;0.63;;;6.20;99.90;;;;;;5073245;28;20427;-76
2022/09/23 01:32:02;;;;;;;0.50;0.50;;;6.20;99.90;;;;;;5053488;28;20436;-76
2022/09/23 01:34:54;;;;;;;0.75;0.75;;;6.20;99.90;;;;;;5054237;28;20838;-76
2022/09/23 01:37:44;;;;;;;0.70;0.50;;;6.10;99.90;;;;;;5054507;28;20424;-76
2022/09/23 01:40:24;;;;;;;1.00;0.85;;;6.00;99.90;;;;;;5054632;28;20425;-76
2022/09/23 01:43:34;;;;;;;0.60;0.60;;;6.00;99.90;;;;;;5054227;28;20500;-76
2022/09/23 01:46:05;;;;;;;0.50;0.50;;;5.90;99.90;;;;;;5033578;28;20436;-76
2022/09/23 01:48:38;;;;;;;0.32;0.30;;;5.90;99.90;;;;;;5054412;28;20478;-76
2022/09/23 01:51:17;;;;;;;0.87;0.73;;;5.90;99.90;;;;;;5054314;28;20831;-76
2022/09/23 01:53:48;;;;;;;0.80;0.80;;;5.90;99.90;;;;;;5053896;28;20429;-76
2022/09/23 01:56:19;;;;;;;0.82;0.82;;;5.80;99.90;;;;;;5068819;28;20492;-75
2022/09/23 01:59:04;;;;;;;0.70;0.70;;;5.70;99.90;;;;;;5073407;28;20424;-76
2022/09/23 02:01:46;;;;;;;0.50;0.47;;;5.70;99.90;;;;;;5073228;28;20431;-76
2022/09/23 02:04:53;;;;;;;0.60;0.60;;;5.70;99.90;;;;;;5073844;28;20514;-76
2022/09/23 02:07:50;;;;;;;0.65;0.65;;;5.70;99.90;;;;;;5061487;28;20435;-76
2022/09/23 02:10:40;;;;;;;0.80;0.73;;;5.70;99.90;;;;;;5072906;28;20790;-76
2022/09/23 02:13:23;;;;;;;0.47;0.47;;;5.60;99.90;;;;;;5072560;28;20437;-75
2022/09/23 02:15:54;;;;;;;0.98;0.70;;;5.70;99.90;;;;;;5073007;28;20430;-76
2022/09/23 02:18:29;;;;;;;0.70;0.60;;;5.70;99.90;;;;;;5072796;28;20427;-76
2022/09/23 02:21:01;;;;;;;1.13;0.87;;;5.70;99.90;;;;;;5072834;28;20435;-76
2022/09/23 02:23:39;;;;;;;0.80;0.80;;;5.70;99.90;;;;;;5072411;28;20428;-76
2022/09/23 02:26:24;;;;;;;0.60;0.60;;;5.70;99.90;;;;;;5073279;28;21138;-77
2022/09/23 02:29:29;;;;;;;1.33;0.80;;;5.70;99.90;;;;;;5072844;28;20427;-76
2022/09/23 02:32:07;;;;;;;1.10;0.63;;;5.70;99.90;;;;;;5073302;28;20424;-76
2022/09/23 02:35:02;;;;;;;0.85;0.85;;;5.70;99.90;;;;;;5072434;28;20436;-76
2022/09/23 02:37:58;;;;;;;0.50;0.50;;;5.70;99.90;;;;;;5073148;28;20948;-76
2022/09/23 02:40:28;;;;;;;0.45;0.45;;;5.70;99.90;;;;;;5072187;28;20805;-76
2022/09/23 02:43:06;;;;;;;0.55;0.55;;;5.70;99.90;;;;;;5072902;28;20453;-76
2022/09/23 02:45:33;;;;;;;0.65;0.65;;;5.60;99.90;;;;;;5071721;28;20427;-76
2022/09/23 02:48:06;;;;;;;1.90;0.63;;;5.60;99.90;;;;;;5073422;28;20423;-76
2022/09/23 02:50:37;;;;;;;1.10;1.00;;;5.60;99.90;;;;;;5073252;28;21038;-76
2022/09/23 02:53:05;;;;;;;0.70;0.70;;;5.70;99.90;;;;;;5072757;28;20431;-76
2022/09/23 02:55:32;;;;;;;0.30;0.30;;;5.60;99.90;;;;;;5072928;28;20913;-76
2022/09/23 02:58:00;;;;;;;0.80;0.65;;;5.60;99.90;;;;;;5073148;28;20774;-75
2022/09/23 03:00:48;;;;;;;0.90;0.45;;;5.50;99.90;;;;;;5073355;28;20427;-76
2022/09/23 03:03:53;;;;;;;5.00;0.80;;;5.50;99.90;;;;;;5072838;28;20462;-76
2022/09/23 03:06:27;;;;;;;0.73;0.73;;;5.50;99.90;;;;;;5072898;28;20497;-76
2022/09/23 03:09:20;;;;;;;0.90;0.80;;;5.50;99.90;;;;;;5073057;28;20431;-76
2022/09/23 03:11:55;;;;;;;0.60;0.60;;;5.40;99.90;;;;;;5072642;28;20435;-76
2022/09/23 03:14:31;;;;;;;0.60;0.60;;;5.40;99.90;;;;;;5072309;28;20434;-77
2022/09/23 03:17:07;;;;;;;0.68;0.68;;;5.40;99.90;;;;;;5072819;28;20423;-76
2022/09/23 03:19:41;;;;;;;0.47;0.47;;;5.40;99.90;;;;;;5072624;28;20489;-76
2022/09/23 03:22:13;;;;;;;1.00;0.80;;;5.40;99.90;;;;;;5072274;28;20424;-76
2022/09/23 03:24:43;;;;;;;0.70;0.63;;;5.40;99.90;;;;;;5071602;28;20809;-76
2022/09/23 03:27:16;;;;;;;0.60;0.60;;;5.40;99.90;;;;;;5072504;28;20470;-76
2022/09/23 03:29:52;;;;;;;1.00;1.00;;;5.40;99.90;;;;;;5072553;28;20913;-77
2022/09/23 03:32:23;;;;;;;0.68;0.60;;;5.50;99.90;;;;;;5072565;28;20916;-76
2022/09/23 03:34:53;;;;;;;0.47;0.47;;;5.50;99.90;;;;;;5072079;28;20427;-76
2022/09/23 03:37:34;;;;;;;0.82;0.82;;;5.60;99.90;;;;;;5072102;28;20423;-76
2022/09/23 03:40:25;;;;;;;0.50;0.50;;;5.60;99.90;;;;;;5072499;28;20432;-77
2022/09/23 03:42:54;;;;;;;0.52;0.52;;;5.70;99.90;;;;;;5072170;28;20434;-76
2022/09/23 03:45:26;;;;;;;0.50;0.50;;;5.70;99.90;;;;;;5071120;28;20798;-77
2022/09/23 03:47:52;;;;;;;0.60;0.60;;;5.60;99.90;;;;;;5072269;28;20477;-76
2022/09/23 03:50:20;;;;;;;0.50;0.50;;;5.60;99.90;;;;;;5071830;28;20430;-76
2022/09/23 03:52:49;;;;;;;0.70;0.70;;;5.50;99.90;;;;;;5072365;28;20423;-77
2022/09/23 03:55:18;;;;;;;0.30;0.30;;;5.50;99.90;;;;;;5071845;28;20428;-76
2022/09/23 03:57:45;;;;;;;0.60;0.60;;;5.50;99.90;;;;;;5070994;28;20902;-77
2022/09/23 04:00:14;;;;;;;0.45;0.45;;;5.50;99.90;;;;;;5071002;28;20979;-76
2022/09/23 04:02:41;;;;;;;0.57;0.57;;;5.50;99.90;;;;;;5070524;28;20423;-77
2022/09/23 04:05:10;;;;;;;0.70;0.60;;;5.50;99.90;;;;;;5070861;28;20427;-77
2022/09/23 04:07:37;;;;;;;0.70;0.70;;;5.50;99.90;;;;;;5071439;28;20432;-77
2022/09/23 04:10:04;;;;;;;0.60;0.60;;;5.60;99.90;;;;;;5071499;28;20939;-76
2022/09/23 04:12:31;;;;;;;0.60;0.60;;;5.60;99.90;;;;;;5070488;28;20438;-76
2022/09/23 04:14:58;;;;;;;0.50;0.50;;;5.70;99.90;;;;;;5070945;28;20438;-76
2022/09/23 04:17:25;;;;;;;0.50;0.50;;;5.70;99.90;;;;;;5070747;28;20427;-76
2022/09/23 04:19:52;;;;;;;0.43;0.43;;;5.60;99.90;;;;;;5072040;28;20433;-77
2022/09/23 04:22:19;;;;;;;0.50;0.50;;;5.60;99.90;;;;;;5071781;28;20435;-76
2022/09/23 04:24:45;;;;;;;0.98;0.98;;;5.50;99.90;;;;;;5071265;28;20435;-76
2022/09/23 04:27:12;;;;;;;0.40;0.40;;;5.50;99.90;;;;;;5075012;28;20431;-76
2022/09/23 04:29:39;;;;;;;1.07;0.53;;;5.40;99.90;;;;;;5071766;28;20435;-77
2022/09/23 04:32:06;;;;;;;2.00;0.60;;;5.40;99.90;;;;;;5073458;28;20439;-77
2022/09/23 04:34:32;;;;;;;0.60;0.60;;;5.30;99.90;;;;;;5071174;28;20427;-77
2022/09/23 04:36:59;;;;;;;0.90;0.90;;;5.30;99.90;;;;;;5071772;28;20423;-77
2022/09/23 04:39:26;;;;;;;0.70;0.70;;;5.30;99.90;;;;;;5071637;28;20432;-76
2022/09/23 04:41:53;;;;;;;0.40;0.40;;;5.30;99.90;;;;;;5071247;28;20428;-76
2022/09/23 04:44:20;;;;;;;0.57;0.57;;;5.30;99.90;;;;;;5071314;28;20869;-77
2022/09/23 04:46:46;;;;;;;0.40;0.40;;;5.40;99.90;;;;;;5071561;28;20434;-76
2022/09/23 04:49:15;;;;;;;0.40;0.40;;;5.50;99.90;;;;;;5071337;28;20432;-76
2022/09/23 04:51:42;;;;;;;0.43;0.43;;;5.40;99.90;;;;;;5071275;28;20431;-76
2022/09/23 04:54:11;;;;;;;0.50;0.50;;;5.50;99.90;;;;;;5070836;28;20427;-76
2022/09/23 04:56:40;;;;;;;0.57;0.57;;;5.40;99.90;;;;;;5070939;28;20431;-76
2022/09/23 04:59:07;;;;;;;0.60;0.60;;;5.40;99.90;;;;;;5074878;28;20427;-76
2022/09/23 05:01:35;;;;;;;0.45;0.45;;;5.50;99.90;;;;;;5074777;28;20428;-77
2022/09/23 05:04:05;;;;;;;1.48;0.63;;;5.50;99.90;;;;;;5074521;28;20435;-76
2022/09/23 05:06:33;;;;;;;0.68;0.68;;;5.40;99.90;;;;;;5074821;28;20434;-76
2022/09/23 05:09:01;;;;;;;0.82;0.82;;;5.40;99.90;;;;;;5074463;28;21203;-76
2022/09/23 05:11:30;;;;;;;0.80;0.80;;;5.40;99.90;;;;;;5075411;28;20518;-76
2022/09/23 05:13:57;;;;;;;0.75;0.60;;;5.40;99.90;;;;;;5074464;28;20434;-76
2022/09/23 05:16:25;;;;;;;0.47;0.47;;;5.40;99.90;;;;;;5074446;28;20424;-76
2022/09/23 05:18:52;;;;;;;0.85;0.70;;;5.40;99.90;;;;;;5075125;28;20435;-76
2022/09/23 05:21:24;;;;;;;0.73;0.73;;;5.40;99.90;;;;;;5074932;28;20427;-76
2022/09/23 05:23:57;;;;;;;0.50;0.50;;;5.30;99.90;;;;;;5074325;28;20436;-78
2022/09/23 05:26:26;;;;;;;0.70;0.70;;;5.40;99.90;;;;;;5074700;28;20431;-78
2022/09/23 05:28:53;;;;;;;1.20;1.10;;;5.40;99.90;;;;;;5074493;28;20909;-77
2022/09/23 05:31:22;;;;;;;0.60;0.60;;;5.50;99.90;;;;;;5074456;28;20434;-78
2022/09/23 05:33:55;;;;;;;0.65;0.65;;;5.60;99.90;;;;;;5074515;28;20438;-78
2022/09/23 05:36:23;;;;;;;0.70;0.70;;;5.70;99.90;;;;;;5074446;28;21112;-78
2022/09/23 05:38:51;;;;;;;1.02;0.90;;;5.80;99.90;;;;;;5074247;28;20961;-78
2022/09/23 05:41:21;;;;;;;0.60;0.60;;;5.90;99.90;;;;;;5074214;28;20442;-78
2022/09/23 05:43:50;;;;;;;0.50;0.50;;;6.00;99.90;;;;;;5074089;28;20431;-78
2022/09/23 05:46:23;;;;;;;0.43;0.43;;;6.10;99.90;;;;;;5074250;28;20427;-78
2022/09/23 05:48:50;;;;;;;0.60;0.60;;;6.30;99.90;;;;;;5074135;28;20517;-78
2022/09/23 05:51:19;;;;;;;0.80;0.80;;;6.40;99.90;;;;;;5074355;28;20442;-78
2022/09/23 05:53:47;;;;;;;0.70;0.70;;;6.50;99.90;;;;;;5073837;28;20506;-79
2022/09/23 05:56:16;;;;;;;0.80;0.80;;;6.60;99.90;;;;;;5074363;28;20428;-79
2022/09/23 05:58:49;;;;;;;1.50;0.82;;;6.70;99.90;;;;;;5073098;28;20427;-79
2022/09/23 06:01:23;;;;;;;1.02;0.95;;;6.80;99.90;;;;;;5073844;28;20434;-78
2022/09/23 06:03:51;;;;;;;0.60;0.60;;;6.90;99.90;;;;;;5074104;28;20455;-79
2022/09/23 06:06:36;;;;;;;0.50;0.50;;;7.10;99.90;;;;;;5074173;28;20431;-79
2022/09/23 06:09:04;;;;;;;0.75;0.75;;;7.20;99.90;;;;;;5072903;28;20431;-80
2022/09/23 06:11:33;;;;;;;0.75;0.75;;;7.40;99.90;;;;;;5074496;28;20435;-79
2022/09/23 06:14:03;;;;;;;0.80;0.80;;;7.50;99.90;;;;;;5074303;28;20461;-79
2022/09/23 06:16:32;;;;;;;0.55;0.55;;;7.60;99.90;;;;;;5074479;28;20518;-79
2022/09/23 06:19:04;;;;;;;0.70;0.70;;;7.80;99.90;;;;;;5074424;28;20431;-79
2022/09/23 06:21:39;;;;;;;0.80;0.60;;;8.00;99.90;;;;;;5074488;28;20514;-79
2022/09/23 06:24:06;;;;;;;0.60;0.60;;;8.10;99.90;;;;;;5072323;28;20902;-79
2022/09/23 06:26:36;;;;;;;0.70;0.70;;;8.10;99.90;;;;;;5072812;28;20882;-79
2022/09/23 06:29:08;;;;;;;0.80;0.80;;;8.00;99.90;;;;;;5073961;28;20427;-79
2022/09/23 06:31:35;;;;;;;0.75;0.75;;;8.00;99.90;;;;;;5073569;28;20502;-80
2022/09/23 06:34:02;;;;;;;0.98;0.98;;;8.00;99.90;;;;;;5073093;28;20423;-79
2022/09/23 06:36:39;;;;;;;0.57;0.57;;;8.10;99.90;;;;;;5073412;28;20852;-78
2022/09/23 06:39:14;;;;;;;0.80;0.80;;;8.20;99.90;;;;;;5074191;28;20427;-80
2022/09/23 06:41:42;;;;;;;0.70;0.70;;;8.30;99.90;;;;;;5073574;28;20434;-79
2022/09/23 06:44:09;;;;;;;0.75;0.75;;;8.40;99.90;;;;;;5073068;28;20489;-80
2022/09/23 06:46:36;;;;;;;0.70;0.70;;;8.60;99.90;;;;;;5073926;28;20427;-80
2022/09/23 06:49:03;;;;;;;0.82;0.82;;;8.80;99.90;;;;;;5073014;28;20431;-80
2022/09/23 06:51:30;;;;;;;0.80;0.80;;;8.90;99.90;;;;;;5073610;28;20435;-80
2022/09/23 06:53:56;;;;;;;0.70;0.70;;;9.00;99.90;;;;;;5073778;28;20493;-79
2022/09/23 06:56:23;;;;;;;0.70;0.70;;;9.10;99.90;;;;;;5072774;28;20470;-80
2022/09/23 06:58:51;;;;;;;0.50;0.50;;;9.20;99.90;;;;;;5073867;28;20438;-80
2022/09/23 07:01:18;;;;;;;1.80;0.70;;;9.40;99.90;;;;;;5073452;28;20423;-79
2022/09/23 07:03:47;;;;;;;0.73;0.73;;;9.60;99.90;;;;;;5073967;28;20467;-80
2022/09/23 07:06:14;;;;;;;0.68;0.68;;;9.80;99.90;;;;;;5075565;28;20454;-79
2022/09/23 07:08:50;;;;;;;0.82;0.82;;;9.90;99.90;;;;;;5074253;28;20454;-79
2022/09/23 07:11:21;;;;;;;0.63;0.63;;;10.00;99.90;;;;;;5073684;28;20523;-80
2022/09/23 07:13:47;;;;;;;0.65;0.65;;;10.20;99.90;;;;;;5072776;28;20438;-79
2022/09/23 07:16:14;;;;;;;1.10;0.90;;;10.50;99.90;;;;;;5075241;28;20502;-80
2022/09/23 07:18:41;;;;;;;0.75;0.75;;;10.70;99.90;;;;;;5074917;28;20430;-80
2022/09/23 07:21:14;;;;;;;0.70;0.70;;;10.90;99.90;;;;;;5075443;28;20423;-80
2022/09/23 07:23:49;;;;;;;0.80;0.80;;;11.10;99.90;;;;;;5074527;28;20427;-80
2022/09/23 07:26:18;;;;;;;1.10;0.90;;;11.30;99.90;;;;;;5074833;28;21875;-79
2022/09/23 07:28:55;;;;;;;0.80;0.80;;;11.10;99.90;;;;;;5073839;28;20858;-79
2022/09/23 07:31:22;;;;;;;0.73;0.73;;;10.90;99.90;;;;;;5073234;28;20427;-80
2022/09/23 07:34:05;;;;;;;0.65;0.65;;;10.70;99.90;;;;;;5073298;28;20866;-79
2022/09/23 07:36:32;;;;;;;0.70;0.70;;;10.70;99.90;;;;;;5073180;28;20427;-80
2022/09/23 07:39:05;;;;;;;0.77;0.77;;;10.90;99.90;;;;;;5072959;28;20489;-78
2022/09/23 07:41:32;;;;;;;0.70;0.70;;;11.10;99.90;;;;;;5073188;28;20432;-80
2022/09/23 07:44:00;;;;;;;1.00;0.88;;;11.40;99.90;;;;;;5073117;28;20427;-79
2022/09/23 07:46:32;;;;;;;1.03;1.03;;;11.60;99.90;;;;;;5073445;28;20898;-78
2022/09/23 07:49:01;;;;;;;0.80;0.80;;;11.90;99.90;;;;;;5074059;28;20453;-77
2022/09/23 07:51:32;;;;;;;0.52;0.52;;;12.00;99.90;;;;;;5073959;28;20431;-80
2022/09/23 07:54:09;;;;;;;1.20;1.10;;;12.20;99.90;;;;;;5073345;28;20424;-81
2022/09/23 07:56:36;;;;;;;0.90;0.90;;;12.50;99.90;;;;;;5074089;28;20487;-79
2022/09/23 07:59:04;;;;;;;0.80;0.80;;;12.70;99.90;;;;;;5070845;28;20427;-78
2022/09/23 08:01:32;;;;;;;0.60;0.60;;;13.00;99.90;;;;;;5072512;28;20455;-78
2022/09/23 08:04:06;;;;;;;0.85;0.65;;;13.40;99.90;;;;;;5071718;28;20482;-78
2022/09/23 08:06:33;;;;;;;0.60;0.60;;;13.90;99.90;;;;;;5073359;28;20917;-78
2022/09/23 08:09:00;;;;;;;0.53;0.53;;;14.20;99.90;;;;;;5073618;28;20427;-77
2022/09/23 08:11:27;;;;;;;0.75;0.75;;;14.30;99.90;;;;;;5077706;28;20505;-79
2022/09/23 08:13:57;;;;;;;0.57;0.57;;;14.70;99.90;;;;;;5071813;28;20482;-78
2022/09/23 08:16:24;;;;;;;0.60;0.60;;;15.00;99.90;;;;;;5072071;28;20477;-79
2022/09/23 08:18:51;;;;;;;0.63;0.63;;;15.60;99.90;;;;;;5073131;28;20821;-78
2022/09/23 08:21:21;;;;;;;0.57;0.57;;;16.10;99.90;;;;;;5071882;28;20975;-78
2022/09/23 08:23:51;;;;;;;0.70;0.70;;;16.40;99.90;;;;;;5072038;28;20427;-78
2022/09/23 08:26:18;;;;;;;0.43;0.43;;;16.20;99.90;;;;;;5072427;28;20457;-79
2022/09/23 08:28:49;;;;;;;0.70;0.70;;;16.20;99.90;;;;;;5072183;28;20431;-78
2022/09/23 08:31:16;;;;;;;0.65;0.65;;;16.40;99.90;;;;;;5071771;28;20438;-79
2022/09/23 08:33:43;;;;;;;0.70;0.70;;;16.70;99.90;;;;;;5071614;28;20432;-79
2022/09/23 08:36:09;;;;;;;0.65;0.65;;;16.70;99.90;;;;;;5072858;28;20470;-78
2022/09/23 08:38:39;;;;;;;0.52;0.52;;;16.70;99.90;;;;;;5074437;28;20431;-79
2022/09/23 08:41:19;;;;;;;0.60;0.60;;;;;;;;;;5075409;28;20439;-79
2022/09/23 08:43:51;;;;;;;0.60;0.60;;;;;;;;;;5073170;28;20424;-79
2022/09/23 08:46:23;;;;;;;0.80;0.80;;;;;;;;;;5071925;28;20974;-78
2022/09/23 08:48:54;;;;;;;0.70;0.70;;;;;;;;;;5072678;28;20459;-79
2022/09/23 08:51:25;;;;;;;0.70;0.70;;;;;;;;;;5072988;28;20481;-79
2022/09/23 08:53:55;;;;;;;0.60;0.60;;;;;;;;;;5071409;28;20434;-76
2022/09/23 08:56:23;;;;;;;0.70;0.70;;;;;;;;;;5070700;28;20428;-79
2022/09/23 08:58:50;;;;;;;0.83;0.83;;;;;;;;;;5071413;28;20463;-76
2022/09/23 09:01:26;;;;;;;0.70;0.70;;;;;;;;;;5071788;28;20431;-78
2022/09/23 09:03:54;;;;;;;0.60;0.60;;;;;;;;;;5070508;28;20476;-79
2022/09/23 09:06:38;;;;;;;0.70;0.70;;;;;;;;;;5071887;28;20441;-77
2022/09/23 09:09:19;;;;;;;0.90;0.90;;;;;;;;;;5071336;28;20431;-78
2022/09/23 09:11:50;;;;;;;0.75;0.70;;;;;;;;;;5071255;28;20435;-79
2022/09/23 09:14:48;;;;;;;0.57;0.55;;;16.90;99.90;;;;;;5071294;28;20438;-79
2022/09/23 09:17:45;;;;;;;0.98;0.93;;;17.30;99.90;;;;;;5071093;28;20437;-79
2022/09/23 09:20:41;;;;;;;0.82;0.60;;;17.70;99.90;;;;;;5041945;28;20430;-79
2022/09/23 09:23:20;;;;;;;0.60;0.60;;;18.00;99.90;;;;;;5040047;28;20889;-79
2022/09/23 09:25:53;;;;;;;0.98;0.98;;;18.20;99.90;;;;;;5071473;28;20840;-78
2022/09/23 09:28:46;;;;;;;1.20;0.80;;;17.90;99.90;;;;;;5070993;28;20477;-77
2022/09/23 09:31:34;;;;;;;0.60;0.60;;;17.60;99.90;;;;;;5070817;28;20431;-78
2022/09/23 09:34:10;;;;;;;0.80;0.80;;;17.50;99.90;;;;;;5070704;28;20430;-79
2022/09/23 09:37:05;;;;;;;0.68;0.68;;;17.70;99.90;;;;;;5071300;28;20427;-78
2022/09/23 09:39:35;;;;;;;0.70;0.70;;;18.20;99.90;;;;;;5071190;28;20484;-79
2022/09/23 09:42:05;;;;;;;0.85;0.85;;;18.80;99.90;;;;;;5070803;28;20431;-78
2022/09/23 09:44:40;;;;;;;1.02;1.02;;;19.10;99.90;;;;;;5074422;28;20912;-78
2022/09/23 09:47:46;;;;;;;0.60;0.60;;;19.20;99.90;;;;;;5073666;28;20427;-79
2022/09/23 09:50:37;;;;;;;1.35;0.90;;;19.00;99.90;;;;;;5074066;28;20419;-79
2022/09/23 09:53:22;;;;;;;0.90;0.90;;;19.20;99.90;;;;;;5074104;28;20431;-78
2022/09/23 09:55:58;;;;;;;0.80;0.73;;;19.20;99.90;;;;;;5074474;28;20428;-79
2022/09/23 09:59:00;;;;;;;1.02;0.98;;;19.40;99.90;;;;;;5074094;28;20464;-77
2022/09/23 10:01:32;;;;;;;0.80;0.80;;;19.30;99.90;;;;;;5012741;28;20475;-79
2022/09/23 10:04:23;;;;;;;1.00;0.60;;;19.30;99.90;;;;;;5012349;28;20845;-76
2022/09/23 10:07:04;;;;;;;1.08;0.80;;;19.10;99.90;;;;;;5011269;28;21034;-77
2022/09/23 10:09:36;;;;;;;0.75;0.75;;;18.40;99.90;;;;;;4995586;28;20436;-78
2022/09/23 10:12:14;;;;;;;0.75;0.75;;;18.30;99.90;;;;;;5012059;28;21054;-77
2022/09/23 10:14:42;;;;;;;0.60;0.60;;;18.40;99.90;;;;;;5011293;28;20440;-76
2022/09/23 10:17:19;;;;;;;0.85;0.85;;;18.20;99.90;;;;;;5011725;28;20495;-78
2022/09/23 10:19:59;;;;;;;0.80;0.80;;;18.50;99.90;;;;;;5011868;28;20439;-79
2022/09/23 10:22:31;;;;;;;0.70;0.70;;;19.00;99.90;;;;;;5011944;28;20432;-79
2022/09/23 10:25:07;;;;;;;0.80;0.80;;;19.40;99.90;;;;;;5011472;28;20439;-78
2022/09/23 10:27:35;;;;;;;0.80;0.80;;;19.00;99.90;;;;;;5011992;28;20432;-80
2022/09/23 10:30:21;;;;;;;0.80;0.80;;;19.70;99.90;;;;;;5011883;28;20488;-78
2022/09/23 10:32:50;;;;;;;0.75;0.75;;;19.50;99.90;;;;;;5011843;28;20437;-78
2022/09/23 10:35:23;;;;;;;0.80;0.80;;;19.50;99.90;;;;;;5010676;28;20463;-77
2022/09/23 10:37:58;;;;;;;1.00;0.70;;;20.00;99.90;;;;;;5032177;28;20423;-80
2022/09/23 10:46:59;;;;;;;0.75;0.75;;;21.20;99.90;;;;;;5073297;28;20435;-78
2022/09/23 10:49:39;;;;;;;0.75;0.75;;;21.30;99.90;;;;;;5073726;28;21035;-78
2022/09/23 10:52:24;;;;;;;0.75;0.75;;;21.00;99.90;;;;;;5073592;28;20454;-79
2022/09/23 10:55:00;;;;;;;0.68;0.68;;;20.70;99.90;;;;;;5072320;28;20427;-78
2022/09/23 10:57:46;;;;;;;0.63;0.63;;;20.60;99.90;;;;;;5073036;28;21204;-78
2022/09/23 11:00:50;;;;;;;0.80;0.80;;;21.10;99.90;;;;;;5073208;28;20477;-77
2022/09/23 11:03:49;;;;;;;0.90;0.90;;;21.60;99.90;;;;;;5072650;28;20431;-75
2022/09/23 11:06:24;;;;;;;0.70;0.70;;;21.80;99.90;;;;;;5039104;28;20802;-77
2022/09/23 11:08:54;;;;;;;0.70;0.70;;;21.20;99.90;;;;;;5073205;28;20423;-78
2022/09/23 11:12:02;;;;;;;0.60;0.60;;;21.80;99.90;;;;;;5073619;28;20433;-77
2022/09/23 11:14:56;;;;;;;0.80;0.80;;;22.00;99.90;;;;;;5010461;28;20472;-77
2022/09/23 11:17:49;;;;;;;0.67;0.67;;;22.00;99.90;;;;;;5010894;28;20432;-78
2022/09/23 11:20:40;;;;;;;0.60;0.60;;;22.30;99.90;;;;;;5010953;28;20432;-78
2022/09/23 11:23:12;;;;;;;0.80;0.80;;;22.60;99.90;;;;;;5010531;28;20435;-78
2022/09/23 11:25:53;;;;;;;0.63;0.63;;;23.40;99.90;;;;;;5010358;28;20479;-77
2022/09/23 11:28:53;;;;;;;0.55;0.55;;;23.40;99.90;;;;;;5010902;28;20436;-77
2022/09/23 11:31:35;;;;;;;2.33;1.67;;;23.50;99.90;;;;;;5010417;28;20822;-78
2022/09/23 11:34:10;;;;;;;0.73;0.73;;;22.60;99.90;;;;;;5009397;28;20450;-76
2022/09/23 11:36:42;;;;;;;0.70;0.70;;;22.50;99.90;;;;;;5009207;28;20435;-76
2022/09/23 11:39:35;;;;;;;1.08;0.63;;;22.90;99.90;;;;;;5009895;28;20423;-77
2022/09/23 11:42:05;;;;;;;0.60;0.60;;;23.00;99.90;;;;;;5008365;28;20436;-76
2022/09/23 11:44:38;;;;;;;0.93;0.93;;;23.10;99.90;;;;;;5006616;28;20473;-77
2022/09/23 11:47:37;;;;;;;0.70;0.70;;;23.10;99.90;;;;;;5086820;28;20481;-78
2022/09/23 11:50:28;;;;;;;2.30;1.33;;;23.20;99.90;;;;;;5069264;28;20802;-79
2022/09/23 11:53:27;;;;;;;0.93;0.85;;;22.50;99.90;;;;;;5072088;28;20428;-76
2022/09/23 11:56:09;;;;;;;0.70;0.70;;;21.80;99.90;;;;;;5073819;28;20428;-76
2022/09/23 11:58:56;;;;;;;1.25;0.75;;;21.50;99.90;;;;;;5071362;28;20434;-75
2022/09/23 12:01:32;;;;;;;0.50;0.50;;;21.40;99.90;;;;;;5071165;28;20477;-76
2022/09/23 12:04:38;;;;;;;0.77;0.77;;;20.90;99.90;;;;;;5070975;28;20430;-76
2022/09/23 12:07:38;;;;;;;2.90;1.00;;;21.10;99.90;;;;;;5007912;28;20440;-76
2022/09/23 12:10:07;;;;;;;0.90;0.60;;;20.90;99.90;;;;;;5008915;28;20538;-76
2022/09/23 12:13:03;;;;;;;0.70;0.70;;;21.00;99.90;;;;;;5008790;28;20982;-76
2022/09/23 12:15:54;;;;;;;0.85;0.85;;;21.60;99.90;;;;;;5008769;28;20440;-76
2022/09/23 12:19:03;;;;;;;0.77;0.77;;;21.30;99.90;;;;;;5009199;28;20436;-77
2022/09/23 12:21:58;;;;;;;1.83;1.00;;;21.50;99.90;;;;;;4992379;28;20525;-76
2022/09/23 12:24:53;;;;;;;0.80;0.80;;;21.10;99.90;;;;;;5008271;28;20440;-76
2022/09/23 12:27:45;;;;;;;0.85;0.85;;;21.40;99.90;;;;;;5005295;28;20436;-77
2022/09/23 12:30:16;;;;;;;0.75;0.75;;;21.10;99.90;;;;;;5010387;28;20429;-77
2022/09/23 12:32:46;;;;;;;0.70;0.70;;;20.60;99.90;;;;;;5008611;28;20891;-76
2022/09/23 12:35:40;;;;;;;0.73;0.73;;;20.60;99.90;;;;;;5007866;28;20425;-76
2022/09/23 12:38:32;;;;;;;0.70;0.70;;;20.90;99.90;;;;;;5007953;28;20471;-76
2022/09/23 12:40:59;;;;;;;1.70;0.60;;;21.10;99.90;;;;;;5008264;28;21251;-77
2022/09/23 12:43:31;;;;;;;0.70;0.70;;;21.30;99.90;;;;;;5056669;28;20427;-77
2022/09/23 12:46:24;;;;;;;0.75;0.75;;;21.70;99.90;;;;;;5085408;28;21283;-78
2022/09/23 12:48:57;;;;;;;0.60;0.60;;;21.90;99.90;;;;;;5070509;28;20476;-75
2022/09/23 12:51:36;;;;;;;1.00;0.80;;;22.00;99.90;;;;;;5070007;28;20432;-74
2022/09/23 12:54:02;;;;;;;0.60;0.60;;;21.80;99.90;;;;;;5070572;28;20434;-76
2022/09/23 12:56:35;;;;;;;0.63;0.63;;;21.80;99.90;;;;;;5069832;28;20437;-76
2022/09/23 12:59:28;;;;;;;1.10;0.73;;;21.90;99.90;;;;;;5070619;28;20427;-76
2022/09/23 13:01:56;;;;;;;0.80;0.80;;;22.10;99.90;;;;;;5070058;28;20434;-78
2022/09/23 13:07:33;;;;;;;0.73;0.73;;;22.60;99.90;;;;;;5070377;28;20533;-76
2022/09/23 13:10:06;;;;;;;0.93;0.93;;;22.60;99.90;;;;;;5070081;28;20437;-76
2022/09/23 13:12:38;;;;;;;0.65;0.65;;;21.90;99.90;;;;;;5068501;28;20485;-77
2022/09/23 13:15:27;;;;;;;1.05;1.05;;;21.50;99.90;;;;;;5069600;28;20427;-76
2022/09/23 13:18:20;;;;;;;0.80;0.80;;;21.90;99.90;;;;;;5071267;28;20507;-77
2022/09/23 13:20:51;;;;;;;1.52;0.70;;;21.90;99.90;;;;;;5073459;28;20965;-78
2022/09/23 13:23:21;;;;;;;0.80;0.80;;;21.80;99.90;;;;;;5073458;28;20431;-79
2022/09/23 13:26:00;;;;;;;0.75;0.75;;;21.60;99.90;;;;;;5073934;28;20951;-76
2022/09/23 13:28:40;;;;;;;1.10;1.00;;;21.20;99.90;;;;;;5073568;28;20430;-76
2022/09/23 13:31:14;;;;;;;0.88;0.88;;;20.90;99.90;;;;;;5073452;28;20427;-76
2022/09/23 13:33:51;;;;;;;0.80;0.70;;;20.30;99.90;;;;;;5073022;28;20431;-76
2022/09/23 13:36:19;;;;;;;0.90;0.90;;;19.90;99.90;;;;;;5072979;28;20427;-76
2022/09/23 13:38:47;;;;;;;0.80;0.80;;;19.80;99.90;;;;;;5073553;28;20430;-76
2022/09/23 13:41:19;;;;;;;0.77;0.77;;;19.80;99.90;;;;;;5073167;28;20775;-76
2022/09/23 13:43:52;;;;;;;0.90;0.90;;;19.70;99.90;;;;;;5071671;28;20427;-76
2022/09/23 13:46:23;;;;;;;0.70;0.70;;;19.70;99.90;;;;;;5073960;28;20435;-75
2022/09/23 13:48:53;;;;;;;1.00;1.00;;;19.60;99.90;;;;;;5073735;28;20528;-81